createdAt,value
2023-05-19T00:01:14.464Z,100.00
2023-05-19T00:06:16.510Z,100.00
2023-05-19T00:11:18.415Z,100.00
2023-05-19T00:16:20.564Z,100.00
2023-05-19T00:21:22.327Z,100.00
2023-05-19T00:26:25.020Z,100.00
2023-05-19T00:31:34.374Z,100.00
2023-05-19T00:36:36.167Z,100.00
2023-05-19T00:41:37.785Z,100.00
2023-05-19T00:46:39.387Z,100.00
2023-05-19T00:51:41.164Z,100.00
2023-05-19T00:56:42.796Z,100.00
2023-05-19T01:01:44.472Z,100.00
2023-05-19T01:06:49.485Z,100.00
2023-05-19T01:11:51.132Z,100.00
2023-05-19T01:17:35.924Z,100.00
2023-05-19T01:23:05.449Z,100.00
2023-05-19T01:28:31.335Z,100.00
2023-05-19T01:33:33.936Z,100.00
2023-05-19T01:38:38.545Z,100.00
2023-05-19T01:43:40.415Z,100.00
2023-05-19T01:48:44.584Z,100.00
2023-05-19T01:53:46.222Z,100.00
2023-05-19T01:58:55.955Z,100.00
2023-05-19T02:04:25.024Z,100.00
2023-05-19T02:09:29.533Z,100.00
2023-05-19T02:14:45.561Z,100.00
2023-05-19T02:19:47.362Z,100.00
2023-05-19T02:24:49.624Z,100.00
2023-05-19T02:29:51.253Z,100.00
2023-05-19T02:34:52.821Z,100.00
2023-05-19T02:39:54.763Z,100.00
2023-05-19T02:44:56.412Z,100.00
2023-05-19T02:49:57.986Z,100.00
2023-05-19T02:54:59.628Z,100.00
2023-05-19T03:00:01.192Z,100.00
2023-05-19T03:05:03.164Z,100.00
2023-05-19T03:10:05.359Z,100.00
2023-05-19T03:15:07.377Z,100.00
2023-05-19T03:20:09.431Z,100.00
2023-05-19T03:25:11.073Z,100.00
2023-05-19T03:30:13.432Z,100.00
2023-05-19T03:35:27.799Z,100.00
2023-05-19T03:40:29.391Z,100.00
2023-05-19T03:45:37.921Z,100.00
2023-05-19T03:50:57.351Z,100.00
2023-05-19T03:56:01.606Z,100.00
2023-05-19T04:01:03.167Z,100.00
2023-05-19T04:06:05.587Z,100.00
2023-05-19T04:11:07.284Z,100.00
2023-05-19T04:16:08.966Z,100.00
2023-05-19T04:21:10.560Z,100.00
2023-05-19T04:26:13.203Z,100.00
2023-05-19T04:31:15.360Z,100.00
2023-05-19T04:36:17.949Z,100.00
2023-05-19T04:41:19.710Z,100.00
2023-05-19T04:46:21.326Z,100.00
2023-05-19T04:51:23.604Z,100.00
2023-05-19T04:56:25.549Z,100.00
2023-05-19T05:01:27.366Z,100.00
2023-05-19T05:06:30.388Z,100.00
2023-05-19T05:11:33.092Z,100.00
2023-05-19T05:16:36.265Z,100.00
2023-05-19T05:21:38.322Z,100.00
2023-05-19T05:26:43.082Z,100.00
2023-05-19T05:31:44.927Z,100.00
2023-05-19T05:36:46.614Z,100.00
2023-05-19T05:41:48.564Z,100.00
2023-05-19T05:46:51.320Z,100.00
2023-05-19T05:52:05.052Z,100.00
2023-05-19T05:57:10.833Z,100.00
2023-05-19T06:02:13.441Z,95.28
2023-05-19T06:07:15.239Z,87.02
2023-05-19T06:12:16.982Z,78.64
2023-05-19T06:17:22.681Z,78.92
2023-05-19T06:22:26.279Z,77.48
2023-05-19T06:27:28.289Z,75.15
2023-05-19T06:32:31.380Z,68.19
2023-05-19T06:37:34.368Z,62.50
2023-05-19T06:42:36.033Z,61.05
2023-05-19T06:47:55.733Z,62.03
2023-05-19T06:52:57.456Z,60.95
2023-05-19T06:58:00.596Z,62.31
2023-05-19T07:03:03.549Z,62.32
2023-05-19T07:08:05.544Z,58.81
2023-05-19T07:13:07.520Z,56.67
2023-05-19T07:18:10.906Z,58.61
2023-05-19T07:23:12.702Z,52.81
2023-05-19T07:28:14.392Z,49.62
2023-05-19T07:33:16.033Z,55.28
2023-05-19T07:38:17.730Z,51.79
2023-05-19T07:43:19.314Z,49.91
2023-05-19T07:48:20.907Z,47.67
2023-05-19T07:53:22.531Z,45.48
2023-05-19T07:58:24.114Z,42.99
2023-05-19T08:03:26.527Z,42.80
2023-05-19T08:08:28.300Z,42.98
2023-05-19T08:13:30.582Z,44.91
2023-05-19T08:18:32.177Z,45.13
2023-05-19T08:23:34.182Z,45.14
2023-05-19T08:28:35.742Z,42.23
2023-05-19T08:33:37.404Z,45.02
2023-05-19T08:38:39.320Z,42.54
2023-05-19T08:43:40.891Z,39.42
2023-05-19T08:48:44.337Z,45.89
2023-05-19T08:53:50.792Z,42.72
2023-05-19T08:58:52.983Z,38.79
2023-05-19T09:03:55.059Z,38.30
2023-05-19T09:08:56.878Z,39.14
2023-05-19T09:13:58.512Z,37.45
2023-05-19T09:19:00.332Z,35.48
2023-05-19T09:24:06.606Z,34.45
2023-05-19T09:29:16.356Z,35.84
2023-05-19T09:34:18.929Z,36.26
2023-05-19T09:39:22.942Z,34.81
2023-05-19T09:44:26.136Z,36.02
2023-05-19T09:49:29.370Z,32.98
2023-05-19T09:54:31.363Z,32.62
2023-05-19T09:59:33.950Z,35.33
2023-05-19T10:04:36.161Z,36.32
2023-05-19T10:09:39.257Z,35.84
2023-05-19T10:14:41.156Z,33.02
2023-05-19T10:19:43.798Z,31.64
2023-05-19T10:24:45.366Z,32.18
2023-05-19T10:29:49.840Z,35.80
2023-05-19T10:34:57.604Z,37.92
2023-05-19T10:40:00.050Z,37.92
2023-05-19T10:45:17.222Z,34.77
2023-05-19T10:50:20.324Z,34.93
2023-05-19T10:55:51.856Z,37.74
2023-05-19T11:01:00.801Z,34.47
2023-05-19T11:06:27.173Z,33.94
2023-05-19T11:11:46.918Z,33.22
2023-05-19T11:16:50.635Z,32.66
2023-05-19T11:21:53.359Z,33.58
2023-05-19T11:26:54.910Z,33.66
2023-05-19T11:31:56.610Z,36.37
2023-05-19T11:36:59.036Z,33.66
2023-05-19T11:42:00.633Z,32.05
2023-05-19T11:47:02.392Z,29.80
2023-05-19T11:52:04.772Z,29.33
2023-05-19T11:57:08.996Z,32.94
2023-05-19T12:02:18.092Z,33.00
2023-05-19T12:07:22.531Z,32.86
2023-05-19T12:12:24.158Z,28.54
2023-05-19T12:17:25.845Z,27.11
2023-05-19T12:22:27.548Z,28.71
2023-05-19T12:27:29.150Z,30.34
2023-05-19T12:32:33.870Z,28.54
2023-05-19T12:37:36.619Z,29.39
2023-05-19T12:42:38.275Z,30.76
2023-05-19T12:47:40.056Z,29.16
2023-05-19T12:52:44.566Z,26.38
2023-05-19T12:57:50.544Z,26.54
2023-05-19T13:03:01.530Z,28.08
2023-05-19T13:08:06.284Z,27.88
2023-05-19T13:13:09.040Z,26.35
2023-05-19T13:18:12.504Z,24.27
2023-05-19T13:23:14.405Z,26.13
2023-05-19T13:28:16.136Z,24.84
2023-05-19T13:33:17.766Z,29.42
2023-05-19T13:38:19.379Z,29.35
2023-05-19T13:43:20.925Z,28.19
2023-05-19T13:48:22.568Z,27.74
2023-05-19T13:53:24.153Z,28.96
2023-05-19T13:58:25.932Z,27.67
2023-05-19T14:03:27.546Z,27.38
2023-05-19T14:08:29.230Z,30.32
2023-05-19T14:13:33.390Z,29.77
2023-05-19T14:18:36.966Z,27.66
2023-05-19T14:23:38.564Z,29.37
2023-05-19T14:28:40.440Z,30.65
2023-05-19T14:33:42.018Z,31.88
2023-05-19T14:38:43.706Z,29.82
2023-05-19T14:43:46.972Z,28.10
2023-05-19T14:48:48.681Z,26.01
2023-05-19T14:53:50.244Z,26.21
2023-05-19T14:58:51.847Z,26.42
2023-05-19T15:03:53.501Z,27.45
2023-05-19T15:08:55.289Z,28.81
2023-05-19T15:13:56.859Z,28.96
2023-05-19T15:18:58.590Z,26.18
2023-05-19T15:24:00.164Z,26.41
2023-05-19T15:29:01.835Z,27.88
2023-05-19T15:34:03.373Z,29.32
2023-05-19T15:39:04.953Z,30.44
2023-05-19T15:44:06.587Z,29.89
2023-05-19T15:49:08.168Z,29.66
2023-05-19T15:54:10.109Z,26.36
2023-05-19T15:59:11.710Z,27.03
2023-05-19T16:04:13.416Z,25.63
2023-05-19T16:09:15.127Z,27.10
2023-05-19T16:14:16.717Z,25.70
2023-05-19T16:19:18.325Z,26.39
2023-05-19T16:24:19.926Z,25.54
2023-05-19T16:29:21.638Z,25.13
2023-05-19T16:34:23.209Z,28.40
2023-05-19T16:39:24.765Z,30.97
2023-05-19T16:44:26.355Z,31.62
2023-05-19T16:49:27.905Z,31.94
2023-05-19T16:54:29.500Z,32.69
2023-05-19T16:59:31.076Z,33.90
2023-05-19T17:04:32.700Z,34.15
2023-05-19T17:09:34.369Z,35.09
2023-05-19T17:14:35.927Z,34.44
2023-05-19T17:19:37.512Z,34.91
2023-05-19T17:24:39.098Z,34.65
2023-05-19T17:29:40.768Z,35.50
2023-05-19T17:34:42.331Z,36.47
2023-05-19T17:39:43.860Z,36.88
2023-05-19T17:44:45.374Z,38.16
2023-05-19T17:49:46.929Z,38.60
2023-05-19T17:54:48.820Z,39.11
2023-05-19T17:59:50.874Z,37.18
2023-05-19T18:04:53.166Z,37.41
2023-05-19T18:09:56.062Z,38.71
2023-05-19T18:14:57.707Z,37.67
2023-05-19T18:19:59.327Z,37.18
2023-05-19T18:25:00.876Z,36.89
2023-05-19T18:30:02.631Z,37.67
2023-05-19T18:35:04.671Z,38.02
2023-05-19T18:40:07.161Z,37.80
2023-05-19T18:45:09.161Z,38.88
2023-05-19T18:50:10.852Z,39.07
2023-05-19T18:55:12.498Z,38.70
2023-05-19T19:00:14.411Z,39.62
2023-05-19T19:05:16.129Z,40.20
2023-05-19T19:10:17.804Z,41.12
2023-05-19T19:15:19.352Z,42.26
2023-05-19T19:20:20.937Z,42.48
2023-05-19T19:25:23.642Z,43.19
2023-05-19T19:30:25.419Z,43.85
2023-05-19T19:35:27.048Z,44.03
2023-05-19T19:40:28.598Z,45.11
2023-05-19T19:45:30.194Z,45.90
2023-05-19T19:50:32.442Z,46.44
2023-05-19T19:55:34.320Z,47.56
2023-05-19T20:00:35.988Z,47.95
2023-05-19T20:05:37.692Z,48.86
2023-05-19T20:10:39.278Z,49.16
2023-05-19T20:15:40.874Z,50.27
2023-05-19T20:20:42.958Z,50.67
2023-05-19T20:26:02.425Z,51.36
2023-05-19T20:31:06.131Z,51.83
2023-05-19T20:36:07.785Z,53.05
2023-05-19T20:41:09.348Z,53.23
2023-05-19T20:46:10.913Z,54.25
2023-05-19T20:51:12.531Z,54.96
2023-05-19T20:56:14.173Z,55.44
2023-05-19T21:01:15.776Z,55.66
2023-05-19T21:06:17.410Z,55.71
2023-05-19T21:11:18.975Z,56.44
2023-05-19T21:16:20.572Z,56.72
2023-05-19T21:21:22.246Z,57.26
2023-05-19T21:26:23.831Z,57.36
2023-05-19T21:31:25.449Z,58.53
2023-05-19T21:36:27.082Z,59.60
2023-05-19T21:41:28.619Z,60.08
2023-05-19T21:46:30.243Z,60.07
2023-05-19T21:51:31.899Z,61.16
2023-05-19T21:56:33.490Z,61.73
2023-05-19T22:01:35.101Z,61.65
2023-05-19T22:06:36.717Z,62.39
2023-05-19T22:11:38.969Z,63.17
2023-05-19T22:16:40.560Z,64.06
2023-05-19T22:21:42.264Z,65.89
2023-05-19T22:26:44.086Z,65.93
2023-05-19T22:31:45.889Z,65.83
2023-05-19T22:36:47.481Z,66.28
2023-05-19T22:41:49.079Z,66.89
2023-05-19T22:46:50.720Z,68.67
2023-05-19T22:51:52.267Z,67.99
2023-05-19T22:56:53.816Z,68.90
2023-05-19T23:01:55.465Z,68.32
2023-05-19T23:06:57.014Z,69.45
2023-05-19T23:11:58.744Z,69.83
2023-05-19T23:17:00.410Z,69.27
2023-05-19T23:22:02.056Z,69.99
2023-05-19T23:27:03.760Z,69.48
2023-05-19T23:32:05.624Z,69.55
2023-05-19T23:37:07.203Z,68.80
2023-05-19T23:42:08.778Z,70.14
2023-05-19T23:47:10.547Z,71.12
2023-05-19T23:52:12.266Z,73.63
2023-05-19T23:57:13.849Z,74.68
